Time;durP1;ratioP1;P1;durP2;ratioP2;P2;SDS_P1;SDS_P2;PMS_P1;PMS_P2;Temp;Humidity;BMP_temperature;BMP_pressure;BME280_temperature;BME280_humidity;BME280_pressure;Samples;Min_cycle;Max_cycle;Signal;HPM_P1;HPM_P2
2022/02/15 00:01:05;;;;;;;8.53;4.57;;;7.40;99.90;;;8.33;97.80;-20010.41;5113389;28;20373;-59
2022/02/15 00:03:34;;;;;;;6.33;4.43;;;7.40;99.90;;;8.50;97.35;-20016.22;5113852;28;20198;-56
2022/02/15 00:06:02;;;;;;;7.33;4.17;;;7.40;99.90;;;8.34;98.65;-20010.75;5113376;28;20230;-54
2022/02/15 00:08:30;;;;;;;5.10;4.50;;;7.40;99.90;;;8.37;97.41;-20011.78;5113131;28;20302;-53
2022/02/15 00:10:58;;;;;;;6.13;4.77;;;7.50;99.90;;;8.30;98.09;-20009.53;5113013;28;20315;-53
2022/02/15 00:13:26;;;;;;;5.50;4.30;;;7.40;99.90;;;8.39;98.06;-20012.44;5112812;28;20308;-54
2022/02/15 00:15:54;;;;;;;5.73;4.10;;;7.50;99.90;;;8.49;97.68;-20015.88;5113979;28;20227;-55
2022/02/15 00:18:22;;;;;;;7.63;4.03;;;7.60;99.90;;;8.52;98.05;-20017.06;5112920;28;20227;-53
2022/02/15 00:20:52;;;;;;;6.37;4.00;;;7.60;99.90;;;8.33;99.42;-20010.56;5113337;28;20218;-57
2022/02/15 00:23:20;;;;;;;6.17;4.37;;;7.60;99.90;;;8.36;100.00;-20011.44;5112946;28;20310;-54
2022/02/15 00:25:50;;;;;;;6.30;4.00;;;7.50;99.90;;;8.46;98.88;-20014.84;5113375;28;20223;-56
2022/02/15 00:28:18;;;;;;;6.23;3.87;;;7.60;99.90;;;8.64;99.22;-20021.16;5112028;28;20290;-54
2022/02/15 00:30:46;;;;;;;5.30;3.87;;;7.60;99.90;;;8.50;99.33;-20016.22;5113382;28;20226;-58
2022/02/15 00:33:14;;;;;;;5.17;3.90;;;7.60;99.90;;;8.79;97.98;-20026.13;5112540;28;20302;-55
2022/02/15 00:35:42;;;;;;;6.03;3.77;;;7.70;99.90;;;8.54;98.98;-20017.75;5112585;28;20288;-56
2022/02/15 00:38:11;;;;;;;4.00;3.27;;;7.70;99.90;;;8.65;99.15;-20021.34;5112463;28;20265;-56
2022/02/15 00:40:40;;;;;;;4.50;3.73;;;7.70;99.90;;;8.53;100.00;-20017.41;5112600;28;20223;-54
2022/02/15 00:43:08;;;;;;;5.77;3.47;;;7.70;99.90;;;8.76;98.82;-20025.09;5112511;28;20682;-54
2022/02/15 00:45:36;;;;;;;4.57;3.63;;;7.70;99.90;;;8.55;100.00;-20018.09;5113187;28;20242;-55
2022/02/15 00:48:04;;;;;;;5.50;3.50;;;7.70;99.90;;;8.99;98.69;-20032.78;5111981;28;20230;-56
2022/02/15 00:50:32;;;;;;;6.57;3.60;;;7.80;99.90;;;8.69;100.00;-20022.72;5112406;28;20307;-56
2022/02/15 00:53:00;;;;;;;3.73;3.40;;;7.80;99.90;;;8.72;99.53;-20023.72;5112161;28;20306;-55
2022/02/15 00:55:30;;;;;;;4.10;3.70;;;7.80;99.90;;;8.73;99.77;-20024.06;5112336;28;20219;-55
2022/02/15 00:57:58;;;;;;;3.83;3.27;;;7.70;99.90;;;8.57;100.00;-20018.59;5112877;28;20238;-58
2022/02/15 01:00:26;;;;;;;5.13;3.33;;;7.70;99.90;;;8.34;100.00;-20010.91;5112205;28;20247;-55
2022/02/15 01:02:54;;;;;;;5.83;3.23;;;7.70;99.90;;;8.34;100.00;-20010.75;5112180;28;20610;-54
2022/02/15 01:05:22;;;;;;;5.53;3.40;;;7.60;99.90;;;8.51;100.00;-20016.56;5112044;28;20665;-55
2022/02/15 01:07:50;;;;;;;4.30;3.43;;;7.60;99.90;;;8.31;100.00;-20009.88;5112073;28;20704;-51
2022/02/15 01:10:20;;;;;;;4.87;3.57;;;7.60;99.90;;;8.51;100.00;-20016.56;5111652;28;20211;-55
2022/02/15 01:12:49;;;;;;;4.77;3.50;;;7.60;99.90;;;8.67;100.00;-20021.84;5112776;28;20251;-55
2022/02/15 01:15:18;;;;;;;4.43;3.43;;;7.60;99.90;;;8.62;100.00;-20020.47;5112041;28;20308;-55
2022/02/15 01:17:47;;;;;;;4.07;3.30;;;7.70;99.90;;;8.33;100.00;-20010.41;5111796;28;20461;-57
2022/02/15 01:20:15;;;;;;;4.03;3.50;;;7.60;99.90;;;8.25;100.00;-20007.84;5111681;28;20227;-52
2022/02/15 01:22:43;;;;;;;4.10;3.10;;;7.50;99.90;;;8.24;100.00;-20007.31;5111771;28;20699;-57
2022/02/15 01:25:11;;;;;;;4.67;3.43;;;7.50;99.90;;;8.34;100.00;-20010.91;5111811;28;20305;-56
2022/02/15 01:27:39;;;;;;;5.80;3.60;;;7.40;99.90;;;8.28;100.00;-20008.88;5112515;28;20196;-56
2022/02/15 01:30:10;;;;;;;4.60;3.30;;;7.40;99.90;;;8.36;100.00;-20011.44;5111870;28;20309;-56
2022/02/15 01:32:38;;;;;;;3.50;2.97;;;7.40;99.90;;;8.02;100.00;-19999.81;5111543;28;20249;-55
2022/02/15 01:35:07;;;;;;;4.90;3.50;;;7.30;99.90;;;8.10;100.00;-20002.72;5111453;28;20599;-53
2022/02/15 01:37:35;;;;;;;4.07;3.67;;;7.30;99.90;;;7.83;100.00;-19993.31;5111866;28;20229;-57
2022/02/15 01:40:04;;;;;;;5.80;3.70;;;7.20;99.90;;;8.21;100.00;-20006.28;5110760;28;20487;-55
2022/02/15 01:42:32;;;;;;;3.47;3.17;;;7.20;99.90;;;8.23;100.00;-20007.16;5112011;28;20295;-53
2022/02/15 01:45:00;;;;;;;3.50;3.20;;;7.30;99.90;;;8.15;100.00;-20004.41;5111427;28;20730;-57
2022/02/15 01:47:31;;;;;;;3.87;3.20;;;7.30;99.90;;;7.97;100.00;-19998.09;5111298;28;20250;-54
2022/02/15 01:50:00;;;;;;;4.03;3.30;;;7.20;99.90;;;7.83;100.00;-19993.31;5111662;28;20318;-56
2022/02/15 01:52:28;;;;;;;4.57;3.23;;;7.10;99.90;;;7.64;100.00;-19986.81;5110016;28;20227;-55
2022/02/15 01:54:59;;;;;;;4.40;3.50;;;7.00;99.90;;;7.64;100.00;-19986.81;5111859;28;20203;-54
2022/02/15 01:57:28;;;;;;;4.13;3.67;;;7.00;99.90;;;7.54;100.00;-19983.56;5111294;28;20310;-56
2022/02/15 01:59:57;;;;;;;4.23;3.50;;;7.00;99.90;;;7.80;100.00;-19992.28;5111339;28;20587;-57
2022/02/15 02:02:30;;;;;;;5.07;3.30;;;7.00;99.90;;;7.71;100.00;-19989.38;5111057;28;20306;-53
2022/02/15 02:07:52;;;;;;;4.10;3.70;;;6.90;99.90;;;7.78;100.00;-19991.59;5062544;28;20226;-53
2022/02/15 02:10:21;;;;;;;4.17;3.70;;;7.00;99.90;;;7.87;100.00;-19994.84;5110510;28;20560;-54
2022/02/15 02:12:51;;;;;;;5.40;3.53;;;7.00;99.90;;;7.68;100.00;-19988.19;5111880;28;20229;-54
2022/02/15 02:15:22;;;;;;;4.60;3.87;;;7.00;99.90;;;8.00;100.00;-19999.13;5110933;28;20241;-56
2022/02/15 02:17:52;;;;;;;5.20;4.20;;;7.00;99.90;;;7.99;100.00;-19998.78;5111019;28;20779;-56
2022/02/15 02:20:22;;;;;;;3.83;3.47;;;7.00;99.90;;;8.10;100.00;-20002.72;5111051;28;20227;-56
2022/02/15 02:22:51;;;;;;;3.90;3.47;;;7.10;99.90;;;8.20;100.00;-20005.97;5110795;28;20610;-55
2022/02/15 02:25:23;;;;;;;4.87;3.50;;;7.10;99.90;;;7.80;100.00;-19992.28;5110858;28;20199;-55
2022/02/15 02:27:51;;;;;;;4.80;3.80;;;7.10;99.90;;;7.79;100.00;-19991.94;5111855;28;20238;-55
2022/02/15 02:30:20;;;;;;;5.20;3.53;;;7.10;99.90;;;7.74;100.00;-19990.41;5111053;28;20631;-53
2022/02/15 02:32:48;;;;;;;4.63;3.83;;;7.00;99.90;;;7.99;100.00;-19998.78;5110520;28;20318;-56
2022/02/15 02:35:16;;;;;;;4.10;3.57;;;7.00;99.90;;;7.81;100.00;-19992.63;5110794;28;20265;-55
2022/02/15 02:37:44;;;;;;;5.13;3.90;;;7.00;99.90;;;7.61;100.00;-19985.97;5110615;28;20520;-55
2022/02/15 02:40:14;;;;;;;5.10;4.10;;;6.90;99.90;;;7.95;100.00;-19997.59;5110804;28;20463;-57
2022/02/15 02:42:42;;;;;;;4.83;3.33;;;7.00;99.90;;;7.85;100.00;-19994.16;5111503;28;20272;-56
2022/02/15 02:45:14;;;;;;;5.83;4.13;;;7.00;99.90;;;7.81;100.00;-19992.81;5110942;28;20227;-57
2022/02/15 02:47:44;;;;;;;4.63;3.80;;;7.00;99.90;;;7.59;100.00;-19985.28;5110564;28;20225;-56
2022/02/15 02:50:13;;;;;;;4.53;3.87;;;6.90;99.90;;;7.65;100.00;-19987.16;5111858;28;20250;-57
2022/02/15 02:52:41;;;;;;;6.80;3.90;;;6.90;99.90;;;7.85;100.00;-19994.16;5114467;28;20457;-58
2022/02/15 02:55:10;;;;;;;5.73;3.93;;;6.90;99.90;;;7.67;100.00;-19987.84;5114361;28;20556;-54
2022/02/15 02:57:40;;;;;;;5.00;3.97;;;6.90;99.90;;;7.70;100.00;-19989.03;5115040;28;20652;-56
2022/02/15 03:00:14;;;;;;;5.77;3.73;;;6.90;99.90;;;7.83;100.00;-19993.31;5114588;28;20253;-57
2022/02/15 03:02:42;;;;;;;6.30;4.00;;;6.90;99.90;;;7.58;100.00;-19984.94;5114489;28;20307;-53
2022/02/15 03:05:10;;;;;;;4.10;3.70;;;6.80;99.90;;;7.55;100.00;-19983.75;5114462;28;20254;-56
2022/02/15 03:07:38;;;;;;;4.10;3.47;;;6.80;99.90;;;7.63;100.00;-19986.66;5114386;28;20224;-54
2022/02/15 03:10:08;;;;;;;5.20;4.00;;;6.80;99.90;;;7.69;100.00;-19988.53;5114307;28;20217;-55
2022/02/15 03:12:36;;;;;;;4.77;3.90;;;6.80;99.90;;;7.82;100.00;-19993.13;5114284;28;20280;-55
2022/02/15 03:15:07;;;;;;;5.43;4.40;;;6.90;99.90;;;7.76;100.00;-19990.91;5114289;28;20294;-57
2022/02/15 03:17:35;;;;;;;5.10;4.37;;;6.90;99.90;;;7.54;100.00;-19983.41;5113927;28;20302;-57
2022/02/15 03:20:23;;;;;;;5.17;3.90;;;6.80;99.90;;;7.52;100.00;-19982.72;5114169;28;20227;-56
2022/02/15 03:22:51;;;;;;;7.67;4.07;;;6.70;99.90;;;7.55;100.00;-19983.75;5114273;28;20306;-57
2022/02/15 03:25:20;;;;;;;5.70;4.17;;;6.80;99.90;;;7.39;100.00;-19978.63;5114080;28;20294;-56
2022/02/15 03:27:48;;;;;;;4.27;3.70;;;6.70;99.90;;;7.33;100.00;-19976.41;5114370;28;20316;-57
2022/02/15 03:30:17;;;;;;;4.17;3.40;;;6.60;99.90;;;7.19;100.00;-19971.78;5113989;28;20223;-56
2022/02/15 03:32:45;;;;;;;5.50;3.83;;;6.60;99.90;;;7.24;100.00;-19973.31;5113754;28;20330;-57
2022/02/15 03:35:13;;;;;;;5.53;4.73;;;6.60;99.90;;;7.16;100.00;-19970.59;5113881;27;20645;-56
2022/02/15 03:37:41;;;;;;;4.90;4.30;;;6.50;99.90;;;7.08;100.00;-19968.03;5113630;28;20655;-56
2022/02/15 03:40:10;;;;;;;6.80;4.17;;;6.50;99.90;;;7.05;100.00;-19967.00;5113839;28;20200;-54
2022/02/15 03:45:25;;;;;;;4.53;4.00;;;6.40;99.90;;;7.08;100.00;-19967.84;5113785;27;20306;-55
2022/02/15 03:47:55;;;;;;;5.80;3.93;;;6.30;99.90;;;7.23;100.00;-19972.97;5113438;28;20227;-55
2022/02/15 03:50:23;;;;;;;4.90;3.77;;;6.40;99.90;;;7.18;100.00;-19971.28;5113655;28;20231;-56
2022/02/15 03:52:53;;;;;;;5.60;3.87;;;6.40;99.90;;;7.06;100.00;-19967.34;5113142;28;20322;-58
2022/02/15 03:55:21;;;;;;;6.43;4.13;;;6.30;99.90;;;7.07;100.00;-19967.69;5113611;28;20209;-56
2022/02/15 03:57:49;;;;;;;4.57;3.97;;;6.30;99.90;;;6.99;100.00;-19964.78;5113671;28;20239;-56
2022/02/15 04:00:18;;;;;;;6.00;3.80;;;6.30;99.90;;;7.08;100.00;-19968.03;5113400;28;20253;-56
2022/02/15 04:02:47;;;;;;;5.80;4.40;;;6.30;99.90;;;6.96;100.00;-19963.75;5112184;28;20253;-55
2022/02/15 04:05:15;;;;;;;5.00;4.17;;;6.30;99.90;;;6.85;100.00;-19960.16;5113352;28;20306;-56
2022/02/15 04:07:43;;;;;;;5.30;3.97;;;6.20;99.90;;;6.88;100.00;-19961.19;5113307;28;20233;-57
2022/02/15 04:10:11;;;;;;;5.70;4.27;;;6.20;99.90;;;6.85;100.00;-19960.00;5113084;28;20206;-56
2022/02/15 04:12:43;;;;;;;4.40;3.90;;;6.10;99.90;;;6.76;100.00;-19957.09;5113368;28;20239;-55
2022/02/15 04:15:11;;;;;;;6.17;4.50;;;6.10;99.90;;;6.74;100.00;-19956.22;5113161;28;20310;-54
2022/02/15 04:17:40;;;;;;;6.07;4.47;;;6.10;99.90;;;6.82;100.00;-19959.13;5112980;28;20226;-55
2022/02/15 04:20:13;;;;;;;5.90;4.43;;;6.00;99.90;;;6.70;100.00;-19955.03;5112897;28;20390;-56
2022/02/15 04:22:41;;;;;;;5.03;3.80;;;6.00;99.90;;;6.63;100.00;-19952.47;5112999;28;20226;-55
2022/02/15 04:25:11;;;;;;;5.40;4.53;;;6.00;99.90;;;6.89;100.00;-19961.53;5112717;28;20206;-56
2022/02/15 04:27:39;;;;;;;5.67;4.07;;;6.00;99.90;;;6.82;100.00;-19959.13;5113126;28;20192;-58
2022/02/15 04:30:10;;;;;;;5.80;4.13;;;6.00;99.90;;;6.67;100.00;-19954.00;5113104;28;20226;-55
2022/02/15 04:32:38;;;;;;;5.80;4.60;;;6.00;99.90;;;6.79;100.00;-19958.13;5112690;28;20268;-57
2022/02/15 04:35:09;;;;;;;7.07;4.47;;;6.00;99.90;;;6.81;100.00;-19958.63;5113049;28;20288;-55
2022/02/15 04:37:37;;;;;;;5.57;4.73;;;5.90;99.90;;;6.73;100.00;-19955.88;5113860;28;20231;-54
2022/02/15 04:40:06;;;;;;;5.63;4.27;;;6.00;99.90;;;6.65;100.00;-19953.16;5112965;28;20253;-56
2022/02/15 04:42:35;;;;;;;6.37;4.57;;;6.00;99.90;;;7.07;100.00;-19967.50;5113377;28;20706;-57
2022/02/15 04:45:03;;;;;;;5.00;4.50;;;6.10;99.90;;;7.17;100.00;-19970.94;5112859;28;20719;-56
2022/02/15 04:47:32;;;;;;;5.97;4.53;;;6.10;99.90;;;7.23;100.00;-19973.16;5112620;28;20262;-58
2022/02/15 04:49:59;;;;;;;6.43;4.47;;;6.20;99.90;;;7.07;100.00;-19967.69;5113044;28;20281;-55
2022/02/15 04:52:29;;;;;;;6.17;4.73;;;6.30;99.90;;;7.12;100.00;-19969.38;5112530;28;20279;-54
2022/02/15 04:54:57;;;;;;;6.77;5.03;;;6.20;99.90;;;7.13;100.00;-19969.72;5113275;28;20219;-55
2022/02/15 04:57:25;;;;;;;5.50;4.80;;;6.20;99.90;;;7.14;100.00;-19969.91;5112150;28;20310;-56
2022/02/15 04:59:53;;;;;;;5.37;4.40;;;6.30;99.90;;;7.07;100.00;-19967.69;5112480;28;20253;-56
2022/02/15 05:02:21;;;;;;;7.03;4.20;;;6.30;99.90;;;7.14;100.00;-19970.06;5112056;28;20255;-56
2022/02/15 05:04:49;;;;;;;7.77;4.30;;;6.30;99.90;;;7.14;100.00;-19969.91;5112202;28;20258;-55
2022/02/15 05:07:17;;;;;;;6.70;5.00;;;6.30;99.90;;;7.19;100.00;-19971.78;5111777;28;20621;-56
2022/02/15 05:09:47;;;;;;;5.50;4.37;;;6.30;99.90;;;7.01;100.00;-19965.63;5112659;28;20210;-54
2022/02/15 05:12:17;;;;;;;5.67;4.73;;;6.30;99.90;;;7.09;100.00;-19968.38;5091699;28;20303;-56
2022/02/15 05:14:45;;;;;;;7.00;4.57;;;6.30;99.90;;;7.23;100.00;-19973.16;5091598;28;20316;-55
2022/02/15 05:17:14;;;;;;;6.73;4.53;;;6.30;99.90;;;7.11;100.00;-19968.88;5101911;28;20250;-57
2022/02/15 05:19:42;;;;;;;6.80;5.30;;;6.30;99.90;;;6.98;100.00;-19964.59;5112048;28;20250;-55
2022/02/15 05:22:10;;;;;;;5.23;4.30;;;6.30;99.90;;;7.30;100.00;-19975.53;5111746;28;20229;-54
2022/02/15 05:24:38;;;;;;;6.40;4.43;;;6.40;99.90;;;7.36;100.00;-19977.59;5112569;28;20199;-57
2022/02/15 05:27:07;;;;;;;6.03;4.80;;;6.40;99.90;;;7.36;100.00;-19977.41;5111818;28;20264;-57
2022/02/15 05:29:37;;;;;;;5.93;4.70;;;6.40;99.90;;;7.16;100.00;-19970.75;5111539;28;20254;-56
2022/02/15 05:32:06;;;;;;;7.77;5.27;;;6.30;99.90;;;7.01;100.00;-19965.63;5111420;28;20269;-55
2022/02/15 05:34:34;;;;;;;7.53;4.60;;;6.30;99.90;;;6.92;100.00;-19962.38;5111455;28;20255;-57
2022/02/15 05:37:02;;;;;;;6.73;5.53;;;6.30;99.90;;;6.90;100.00;-19961.88;5111951;28;20656;-56
2022/02/15 05:39:30;;;;;;;7.00;4.60;;;6.30;99.90;;;6.92;100.00;-19962.56;5111974;28;20694;-56
2022/02/15 05:41:58;;;;;;;8.37;5.20;;;6.20;99.90;;;7.19;100.00;-19971.78;5111549;28;20225;-57
2022/02/15 05:44:28;;;;;;;6.53;4.83;;;6.30;99.90;;;7.10;100.00;-19968.53;5111205;28;20230;-56
2022/02/15 05:46:56;;;;;;;7.63;5.10;;;6.20;99.90;;;7.09;100.00;-19968.19;5111517;28;20225;-57
2022/02/15 05:49:24;;;;;;;5.97;4.60;;;6.30;99.90;;;7.11;100.00;-19969.03;5111284;28;20233;-56
2022/02/15 05:51:54;;;;;;;7.87;4.73;;;6.20;99.90;;;6.96;100.00;-19963.91;5111713;28;20321;-57
2022/02/15 05:54:22;;;;;;;4.90;4.20;;;6.20;99.90;;;6.88;100.00;-19961.00;5111029;28;20226;-58
2022/02/15 05:56:50;;;;;;;5.20;4.47;;;6.20;99.90;;;6.85;100.00;-19960.00;5111364;28;20226;-56
2022/02/15 05:59:18;;;;;;;7.87;4.83;;;6.20;99.90;;;6.87;100.00;-19960.84;5110925;28;20317;-57
2022/02/15 06:01:47;;;;;;;8.77;5.43;;;6.10;99.90;;;7.02;100.00;-19965.78;5111190;28;20219;-57
2022/02/15 06:04:17;;;;;;;6.57;4.80;;;6.10;99.90;;;6.90;100.00;-19961.69;5111131;28;20255;-57
2022/02/15 06:06:45;;;;;;;8.53;4.90;;;6.10;99.90;;;6.85;100.00;-19960.16;5111839;28;20278;-55
2022/02/15 06:09:13;;;;;;;7.70;4.93;;;6.10;99.90;;;6.98;100.00;-19964.59;5110814;28;20237;-56
2022/02/15 06:11:41;;;;;;;9.53;5.23;;;6.10;99.90;;;7.03;100.00;-19966.31;5111331;28;20222;-56
2022/02/15 06:14:09;;;;;;;7.70;5.40;;;6.20;99.90;;;6.88;100.00;-19961.00;5110722;28;20230;-54
2022/02/15 06:16:37;;;;;;;9.20;5.37;;;6.20;99.90;;;6.74;100.00;-19956.41;5111027;28;20225;-55
2022/02/15 06:19:06;;;;;;;6.10;4.93;;;6.10;99.90;;;6.85;100.00;-19960.00;5110595;28;20745;-57
2022/02/15 06:21:35;;;;;;;6.53;4.53;;;6.10;99.90;;;6.96;100.00;-19963.91;5111560;28;20286;-55
2022/02/15 06:24:02;;;;;;;6.53;5.00;;;6.10;99.90;;;6.84;100.00;-19959.66;5110653;28;20226;-57
2022/02/15 06:26:51;;;;;;;6.10;5.13;;;6.10;99.90;;;6.69;100.00;-19954.53;5110731;28;20230;-57
2022/02/15 06:29:19;;;;;;;7.27;5.57;;;6.10;99.90;;;6.64;100.00;-19952.97;5110642;28;20223;-57
2022/02/15 06:31:47;;;;;;;6.37;5.57;;;6.00;99.90;;;6.60;100.00;-19951.63;5110976;28;20305;-57
2022/02/15 06:34:16;;;;;;;7.23;5.30;;;5.90;99.90;;;6.56;100.00;-19950.25;5110590;28;20322;-56
2022/02/15 06:36:44;;;;;;;7.30;5.60;;;5.90;99.90;;;6.39;100.00;-19944.44;5111545;28;20203;-56
2022/02/15 06:39:12;;;;;;;7.27;5.67;;;5.80;99.90;;;6.41;100.00;-19945.13;5110657;28;20222;-55
2022/02/15 06:41:40;;;;;;;6.43;5.37;;;5.70;99.90;;;6.34;100.00;-19942.56;5110900;28;20226;-57
2022/02/15 06:44:08;;;;;;;8.77;5.80;;;5.70;99.90;;;6.26;100.00;-19939.81;5110678;28;20226;-58
2022/02/15 06:46:37;;;;;;;10.50;6.10;;;5.60;99.90;;;6.32;100.00;-19941.88;5110682;28;20226;-58
2022/02/15 06:49:05;;;;;;;9.60;5.70;;;5.60;99.90;;;6.22;100.00;-19938.78;5113199;28;20306;-55
2022/02/15 06:51:34;;;;;;;7.17;6.20;;;5.60;99.90;;;6.27;100.00;-19940.34;5112308;28;20264;-58
2022/02/15 06:54:03;;;;;;;7.97;5.70;;;5.50;99.90;;;6.22;100.00;-19938.78;5110514;28;20610;-58
2022/02/15 06:56:31;;;;;;;7.67;5.90;;;5.50;99.90;;;6.20;100.00;-19937.94;5110538;28;20232;-56
2022/02/15 06:58:59;;;;;;;7.20;6.20;;;5.50;99.90;;;6.41;100.00;-19944.94;5110813;27;20226;-58
2022/02/15 07:01:28;;;;;;;8.17;5.80;;;5.50;99.90;;;6.31;100.00;-19941.69;5110565;27;20233;-59
2022/02/15 07:03:56;;;;;;;9.07;6.13;;;5.50;99.90;;;6.22;100.00;-19938.47;5111147;28;20238;-57
2022/02/15 07:06:24;;;;;;;7.47;6.20;;;5.50;99.90;;;6.22;100.00;-19938.78;5110452;27;20229;-59
2022/02/15 07:08:59;;;;;;;8.47;6.70;;;5.50;99.90;;;6.49;100.00;-19947.84;5108723;28;20229;-59
2022/02/15 07:11:27;;;;;;;9.20;6.00;;;5.60;99.90;;;6.36;100.00;-19943.41;5110258;28;20222;-59
2022/02/15 07:13:55;;;;;;;9.03;5.87;;;5.60;99.90;;;6.58;100.00;-19950.94;5108917;28;20270;-57
2022/02/15 07:16:23;;;;;;;7.33;5.67;;;5.70;99.90;;;6.57;100.00;-19950.59;5109790;28;20229;-58
2022/02/15 07:18:51;;;;;;;7.97;6.13;;;5.70;99.90;;;6.66;100.00;-19953.66;5110907;28;20203;-56
2022/02/15 07:21:19;;;;;;;7.43;5.80;;;5.80;99.90;;;6.51;100.00;-19948.53;5109957;28;20773;-58
2022/02/15 07:23:47;;;;;;;9.90;6.10;;;5.80;99.90;;;6.54;100.00;-19949.56;5110144;28;20243;-59
2022/02/15 07:26:18;;;;;;;9.37;6.17;;;5.80;99.90;;;6.51;100.00;-19948.53;5109914;28;20314;-59
2022/02/15 07:28:46;;;;;;;9.17;6.90;;;5.80;99.90;;;6.51;100.00;-19948.53;5110151;28;20655;-59
2022/02/15 07:31:15;;;;;;;9.13;5.73;;;5.80;99.90;;;6.60;100.00;-19951.63;5110182;28;20718;-56
2022/02/15 07:33:43;;;;;;;7.80;5.90;;;5.80;99.90;;;6.74;100.00;-19956.41;5110566;28;20203;-56
2022/02/15 07:36:11;;;;;;;9.07;6.07;;;5.90;99.90;;;6.75;100.00;-19956.75;5109807;28;20225;-52
2022/02/15 07:38:39;;;;;;;8.70;6.03;;;5.90;99.90;;;6.99;100.00;-19964.78;5112914;28;20290;-56
2022/02/15 07:41:07;;;;;;;9.10;6.07;;;6.00;99.90;;;6.90;100.00;-19961.69;5113648;28;20257;-52
2022/02/15 07:43:37;;;;;;;9.70;6.53;;;6.00;99.90;;;6.83;100.00;-19959.31;5113689;27;20232;-54
2022/02/15 07:46:07;;;;;;;8.47;6.20;;;6.10;99.90;;;7.25;100.00;-19973.84;5113589;27;20199;-56
2022/02/15 07:48:36;;;;;;;9.87;6.63;;;6.20;99.90;;;7.32;100.00;-19976.06;5114013;28;20215;-54
2022/02/15 07:51:04;;;;;;;9.93;5.70;;;6.20;99.90;;;7.12;100.00;-19969.38;5113362;27;20317;-56
2022/02/15 07:53:33;;;;;;;9.67;5.87;;;6.30;99.90;;;7.18;100.00;-19971.28;5113201;27;20717;-57
2022/02/15 07:56:02;;;;;;;10.20;5.23;;;6.30;99.90;;;7.12;100.00;-19969.38;5113065;27;20227;-58
2022/02/15 07:58:30;;;;;;;9.17;6.57;;;6.40;99.90;;;7.12;100.00;-19969.38;5113579;27;20250;-60
2022/02/15 08:00:59;;;;;;;13.80;9.13;;;6.40;99.90;;;7.24;100.00;-19973.31;5113873;28;20282;-58
2022/02/15 08:03:27;;;;;;;11.67;6.93;;;6.40;99.90;;;7.30;100.00;-19975.38;5113451;28;20219;-58
2022/02/15 08:05:55;;;;;;;13.33;6.73;;;6.50;99.90;;;7.50;100.00;-19982.19;5112884;27;20412;-60
2022/02/15 08:08:23;;;;;;;9.37;5.53;;;6.50;99.90;;;7.59;100.00;-19985.28;5113096;27;20306;-60
2022/02/15 08:10:55;;;;;;;5.97;5.10;;;6.60;99.90;;;7.48;100.00;-19981.53;5112767;28;20639;-56
2022/02/15 08:13:24;;;;;;;6.87;5.53;;;6.60;99.90;;;7.60;100.00;-19985.63;5113061;28;20311;-57
2022/02/15 08:15:52;;;;;;;7.97;4.80;;;6.70;99.90;;;7.68;100.00;-19988.34;5113229;28;20219;-57
2022/02/15 08:18:22;;;;;;;6.80;4.80;;;6.80;99.90;;;7.79;100.00;-19991.94;5112739;28;20314;-58
2022/02/15 08:20:50;;;;;;;5.77;4.60;;;6.80;99.90;;;7.72;100.00;-19989.72;5112784;28;20884;-62
2022/02/15 08:23:18;;;;;;;8.90;5.20;;;6.90;99.90;;;7.77;100.00;-19991.25;5112753;28;20250;-59
2022/02/15 08:25:46;;;;;;;7.47;4.43;;;6.90;99.90;;;7.87;100.00;-19994.84;5112919;28;20258;-57
2022/02/15 08:28:14;;;;;;;8.17;5.17;;;7.00;99.90;;;7.93;100.00;-19996.91;5112799;28;20283;-56
2022/02/15 08:30:42;;;;;;;6.63;5.10;;;7.10;99.90;;;8.05;100.00;-20001.00;5113121;28;20215;-56
2022/02/15 08:33:10;;;;;;;5.57;4.80;;;7.20;99.90;;;8.16;100.00;-20004.59;5112336;28;20728;-55
2022/02/15 08:35:40;;;;;;;5.57;4.67;;;7.20;99.90;;;8.24;100.00;-20007.31;5112512;28;20730;-56
2022/02/15 08:38:08;;;;;;;8.30;4.73;;;7.30;99.90;;;8.28;100.00;-20008.88;5112569;28;20249;-55
2022/02/15 08:40:36;;;;;;;9.90;5.60;;;7.40;99.90;;;8.45;100.00;-20014.69;5094897;28;20274;-59
2022/02/15 08:43:04;;;;;;;8.57;5.50;;;7.40;99.90;;;8.51;100.00;-20016.56;5092289;28;20239;-61
2022/02/15 08:45:32;;;;;;;8.23;5.60;;;7.60;99.90;;;8.50;100.00;-20016.22;5095094;28;20246;-60
2022/02/15 08:48:00;;;;;;;9.70;5.23;;;7.60;99.90;;;8.62;100.00;-20020.31;5091077;28;20252;-58
2022/02/15 08:50:28;;;;;;;7.17;4.73;;;7.70;99.90;;;8.73;100.00;-20024.06;5091911;28;20308;-58
2022/02/15 08:52:58;;;;;;;6.63;4.50;;;7.70;99.90;;;8.85;100.00;-20028.16;5091631;28;20314;-61
2022/02/15 08:55:26;;;;;;;6.60;4.30;;;7.90;99.90;;;9.18;100.00;-20039.28;5091675;28;20320;-58
2022/02/15 08:57:54;;;;;;;6.20;4.33;;;8.00;99.90;;;9.45;100.00;-20048.66;5092131;28;20196;-56
2022/02/15 09:00:22;;;;;;;5.27;4.70;;;8.20;99.90;;;9.31;100.00;-20043.88;5091569;28;20247;-56
2022/02/15 09:02:50;;;;;;;6.87;4.03;;;8.20;99.90;;;9.28;100.00;-20042.88;5106720;28;20277;-59
2022/02/15 09:05:17;;;;;;;6.10;4.43;;;8.30;99.90;;;9.37;100.00;-20045.78;5112160;28;20311;-56
2022/02/15 09:07:48;;;;;;;8.47;5.30;;;8.40;99.90;;;9.38;100.00;-20046.09;5112316;28;20215;-57
2022/02/15 09:10:18;;;;;;;4.90;3.80;;;8.40;99.90;;;9.47;100.00;-20049.19;5112045;28;20207;-56
2022/02/15 09:12:47;;;;;;;8.13;4.67;;;8.40;99.90;;;9.39;100.00;-20046.44;5112493;28;20573;-58
2022/02/15 09:15:18;;;;;;;4.97;4.17;;;8.50;99.90;;;9.49;100.00;-20050.03;5111910;28;20303;-56
2022/02/15 09:17:47;;;;;;;6.30;4.60;;;8.50;99.90;;;9.81;100.00;-20060.78;5111428;28;20257;-58
2022/02/15 09:20:15;;;;;;;9.40;5.00;;;8.60;99.90;;;9.90;100.00;-20063.88;5111807;28;20259;-57
2022/02/15 09:22:43;;;;;;;5.63;4.47;;;8.80;99.90;;;10.23;100.00;-20075.16;5111583;28;20223;-56
2022/02/15 09:25:11;;;;;;;6.50;4.70;;;9.00;99.90;;;10.10;100.00;-20070.53;5111807;28;20203;-58
2022/02/15 09:27:40;;;;;;;7.70;4.57;;;9.00;99.90;;;10.32;100.00;-20078.06;5112074;28;20188;-57
2022/02/15 09:30:10;;;;;;;6.53;4.43;;;9.10;99.90;;;10.42;100.00;-20081.63;5111561;28;20223;-57
2022/02/15 09:32:37;;;;;;;7.53;4.60;;;9.30;99.90;;;10.59;100.00;-20087.44;5111466;28;20233;-57
2022/02/15 09:35:07;;;;;;;6.90;4.23;;;9.40;99.90;;;10.51;100.00;-20084.53;5108677;28;20605;-56
2022/02/15 09:37:35;;;;;;;6.70;4.47;;;9.40;99.90;;;10.68;100.00;-20090.34;5090966;28;20228;-56
2022/02/15 09:40:05;;;;;;;6.00;4.20;;;9.50;99.90;;;10.61;100.00;-20087.97;5091205;28;20200;-57
2022/02/15 09:42:35;;;;;;;7.53;4.53;;;9.50;99.90;;;10.61;100.00;-20087.97;5091225;28;20232;-57
2022/02/15 09:45:06;;;;;;;7.83;3.93;;;9.50;99.90;;;10.47;100.00;-20083.34;5091275;28;20807;-54
2022/02/15 09:47:37;;;;;;;6.50;4.27;;;9.50;99.90;;;10.44;100.00;-20082.31;5090745;28;20231;-58
2022/02/15 09:50:08;;;;;;;7.87;4.57;;;9.40;99.90;;;10.53;100.00;-20085.41;5091027;28;20220;-58
2022/02/15 09:52:37;;;;;;;8.13;4.67;;;9.40;99.90;;;10.60;100.00;-20087.63;5090960;28;20220;-59
2022/02/15 09:55:06;;;;;;;6.37;4.57;;;9.50;99.90;;;10.86;100.00;-20096.66;5106587;28;20195;-55
2022/02/15 09:57:34;;;;;;;6.47;4.80;;;9.60;99.90;;;10.66;100.00;-20089.84;5111741;28;20221;-58
2022/02/15 10:00:24;;;;;;;5.67;4.40;;;9.70;99.90;;;10.99;100.00;-20100.94;5110719;28;20233;-60
2022/02/15 10:02:53;;;;;;;6.03;4.50;;;9.70;99.90;;;11.14;100.00;-20105.91;5110693;28;20223;-58
2022/02/15 10:05:22;;;;;;;7.60;4.50;;;9.90;99.90;;;11.20;100.00;-20107.94;5110981;28;20306;-61
2022/02/15 10:07:56;;;;;;;6.37;4.60;;;10.00;99.90;;;11.26;100.00;-20110.16;5110893;28;20767;-57
2022/02/15 10:10:30;;;;;;;8.90;5.10;;;10.00;99.90;;;11.26;100.00;-20110.00;5110866;28;20276;-56
2022/02/15 10:13:03;;;;;;;6.80;4.83;;;10.00;99.90;;;11.27;100.00;-20110.50;5111620;28;20187;-54
2022/02/15 10:15:40;;;;;;;5.97;5.00;;;10.10;99.90;;;11.00;100.00;-20101.28;5111433;28;20203;-56
2022/02/15 10:18:12;;;;;;;6.20;4.73;;;9.90;99.90;;;10.88;100.00;-20097.34;5110708;28;20298;-61
2022/02/15 10:20:45;;;;;;;7.70;5.10;;;9.90;99.90;;;11.00;100.00;-20101.28;5110818;28;20598;-62
2022/02/15 10:23:24;;;;;;;8.33;5.50;;;9.90;99.90;;;10.92;100.00;-20098.56;5110762;28;20582;-61
2022/02/15 10:25:55;;;;;;;6.57;4.90;;;9.80;99.90;;;11.18;100.00;-20107.44;5111191;28;20231;-56
2022/02/15 10:28:27;;;;;;;6.00;4.90;;;9.80;99.90;;;11.25;100.00;-20109.66;5110516;28;20695;-58
2022/02/15 10:30:58;;;;;;;6.63;4.83;;;9.90;99.90;;;11.27;100.00;-20110.34;5111531;28;20187;-57